createdAt,value
2018-09-02T00:00:04.463Z,0
2018-09-02T00:01:14.665Z,0
2018-09-02T00:02:24.793Z,0
2018-09-02T00:03:34.943Z,0
2018-09-02T00:04:45.129Z,0
2018-09-02T00:05:55.284Z,0
2018-09-02T00:07:05.200Z,0
2018-09-02T00:08:15.332Z,0
2018-09-02T00:09:25.474Z,0
2018-09-02T00:10:35.686Z,0
2018-09-02T00:11:45.908Z,0
2018-09-02T00:12:56.259Z,0
2018-09-02T00:14:06.460Z,0
2018-09-02T00:15:16.691Z,0
2018-09-02T00:16:26.841Z,0
2018-09-02T00:17:36.972Z,0
2018-09-02T00:18:47.238Z,0
2018-09-02T00:19:57.467Z,0
2018-09-02T00:21:07.656Z,0
2018-09-02T00:22:17.854Z,0
2018-09-02T00:23:28.235Z,0
2018-09-02T00:24:38.859Z,0
2018-09-02T00:25:49.115Z,0
2018-09-02T00:26:59.313Z,0
2018-09-02T00:28:09.511Z,0
2018-09-02T00:29:19.682Z,0
2018-09-02T00:30:29.937Z,0
2018-09-02T00:31:40.086Z,0
2018-09-02T00:32:49.970Z,0
2018-09-02T00:34:00.799Z,0
2018-09-02T00:35:10.717Z,0
2018-09-02T00:36:20.876Z,0
2018-09-02T00:37:31.018Z,0
2018-09-02T00:38:41.173Z,0
2018-09-02T00:39:51.332Z,0
2018-09-02T00:41:01.483Z,0
2018-09-02T00:42:11.381Z,0
2018-09-02T00:43:21.314Z,0
2018-09-02T00:44:31.457Z,0
2018-09-02T00:45:41.581Z,0
2018-09-02T00:46:51.505Z,0
2018-09-02T00:48:01.656Z,0
2018-09-02T00:49:11.851Z,0
2018-09-02T00:50:21.963Z,0
2018-09-02T00:51:32.119Z,0
2018-09-02T00:52:41.886Z,0
2018-09-02T00:53:52.078Z,0
2018-09-02T00:55:02.253Z,0
2018-09-02T00:56:12.449Z,0
2018-09-02T00:57:22.697Z,0
2018-09-02T00:58:32.965Z,0
2018-09-02T00:59:43.112Z,0
2018-09-02T01:00:52.975Z,0
2018-09-02T01:02:03.119Z,0
2018-09-02T01:03:13.246Z,0
2018-09-02T01:04:23.512Z,0
2018-09-02T01:05:33.623Z,0
2018-09-02T01:06:43.858Z,0
2018-09-02T01:07:54.093Z,0
2018-09-02T01:09:04.249Z,0
2018-09-02T01:10:14.541Z,0
2018-09-02T01:11:24.655Z,0
2018-09-02T01:12:34.797Z,0
2018-09-02T01:13:44.652Z,0
2018-09-02T01:14:54.792Z,0
2018-09-02T01:16:04.951Z,0
2018-09-02T01:17:16.104Z,0
2018-09-02T01:18:25.976Z,0
2018-09-02T01:19:36.246Z,0
2018-09-02T01:20:46.116Z,0
2018-09-02T01:21:56.363Z,0
2018-09-02T01:23:07.282Z,0
2018-09-02T01:24:17.469Z,0
2018-09-02T01:25:27.278Z,0
2018-09-02T01:26:37.409Z,0
2018-09-02T01:27:47.273Z,0
2018-09-02T01:28:57.253Z,0
2018-09-02T01:30:07.378Z,0
2018-09-02T01:31:17.625Z,0
2018-09-02T01:32:27.786Z,0
2018-09-02T01:33:37.752Z,0
2018-09-02T01:34:47.887Z,0
2018-09-02T01:35:58.019Z,0
2018-09-02T01:37:08.400Z,0
2018-09-02T01:38:18.536Z,0
2018-09-02T01:39:28.802Z,0
2018-09-02T01:40:39.992Z,0
2018-09-02T01:41:50.148Z,0
2018-09-02T01:43:00.065Z,0
2018-09-02T01:44:09.971Z,0
2018-09-02T01:45:20.298Z,0
2018-09-02T01:46:30.065Z,0
2018-09-02T01:47:40.273Z,0
2018-09-02T01:48:50.423Z,0
2018-09-02T01:50:00.363Z,0
2018-09-02T01:51:10.294Z,0
2018-09-02T01:52:20.435Z,0
2018-09-02T01:53:30.569Z,0
2018-09-02T01:54:41.043Z,0
2018-09-02T01:55:51.313Z,0
2018-09-02T01:57:01.523Z,0
2018-09-02T01:58:11.717Z,0
2018-09-02T01:59:21.950Z,0
2018-09-02T02:00:32.131Z,0
2018-09-02T02:01:42.040Z,0
2018-09-02T02:02:52.197Z,0
2018-09-02T02:04:02.343Z,0
2018-09-02T02:05:12.304Z,0
2018-09-02T02:06:22.631Z,0
2018-09-02T02:07:32.775Z,0
2018-09-02T02:08:42.939Z,0
2018-09-02T02:09:53.067Z,0
2018-09-02T02:11:03.287Z,0
2018-09-02T02:12:13.442Z,0
2018-09-02T02:13:23.323Z,0
2018-09-02T02:14:33.474Z,0
2018-09-02T02:15:43.595Z,0
2018-09-02T02:16:53.728Z,0
2018-09-02T02:18:03.946Z,0
2018-09-02T02:19:14.093Z,0
2018-09-02T02:20:24.266Z,0
2018-09-02T02:21:34.393Z,0
2018-09-02T02:22:44.515Z,0
2018-09-02T02:23:55.668Z,0
2018-09-02T02:25:05.821Z,0
2018-09-02T02:26:15.978Z,0
2018-09-02T02:27:26.265Z,0
2018-09-02T02:28:36.400Z,0
2018-09-02T02:29:46.556Z,0
2018-09-02T02:30:56.684Z,0
2018-09-02T02:32:06.848Z,0
2018-09-02T02:33:16.774Z,0
2018-09-02T02:34:26.898Z,0
2018-09-02T02:35:37.235Z,0
2018-09-02T02:36:47.358Z,0
2018-09-02T02:37:57.511Z,0
2018-09-02T02:39:07.671Z,0
2018-09-02T02:40:17.556Z,0
2018-09-02T02:41:27.685Z,0
2018-09-02T02:42:37.579Z,0
2018-09-02T02:43:47.509Z,0
2018-09-02T02:44:57.399Z,0
2018-09-02T02:46:06.906Z,0
2018-09-02T02:47:17.193Z,0
2018-09-02T02:48:27.411Z,0
2018-09-02T02:49:37.683Z,0
2018-09-02T02:50:47.879Z,0
2018-09-02T02:51:58.036Z,0
2018-09-02T02:53:08.197Z,0
2018-09-02T02:54:18.082Z,0
2018-09-02T02:55:27.867Z,0
2018-09-02T02:56:38.042Z,0
2018-09-02T02:57:48.132Z,0
2018-09-02T02:58:58.382Z,0
2018-09-02T03:00:08.532Z,0
2018-09-02T03:01:18.745Z,0
2018-09-02T03:02:28.616Z,0
2018-09-02T03:03:38.897Z,0
2018-09-02T03:04:49.311Z,0
2018-09-02T03:05:59.445Z,0
2018-09-02T03:07:09.575Z,0
2018-09-02T03:08:19.753Z,0
2018-09-02T03:09:29.933Z,0
2018-09-02T03:10:40.246Z,0
2018-09-02T03:11:50.444Z,0
2018-09-02T03:13:00.620Z,0
2018-09-02T03:14:10.901Z,0
2018-09-02T03:15:21.075Z,0
2018-09-02T03:16:31.330Z,0
2018-09-02T03:17:42.442Z,0
2018-09-02T03:18:52.708Z,0
2018-09-02T03:20:02.599Z,0
2018-09-02T03:21:12.712Z,0
2018-09-02T03:22:23.051Z,0
2018-09-02T03:23:32.917Z,0
2018-09-02T03:24:43.038Z,0
2018-09-02T03:25:52.928Z,0
2018-09-02T03:27:03.157Z,0
2018-09-02T03:28:13.340Z,0
2018-09-02T03:29:23.464Z,0
2018-09-02T03:30:33.595Z,0
2018-09-02T03:31:43.471Z,0
2018-09-02T03:32:53.628Z,0
2018-09-02T03:34:03.756Z,0
2018-09-02T03:35:13.907Z,0
2018-09-02T03:36:24.151Z,0
2018-09-02T03:37:34.016Z,0
2018-09-02T03:38:44.228Z,0
2018-09-02T03:39:54.086Z,0
2018-09-02T03:41:04.215Z,0
2018-09-02T03:42:14.395Z,0
2018-09-02T03:43:24.538Z,0
2018-09-02T03:44:34.661Z,0
2018-09-02T03:45:44.871Z,0
2018-09-02T03:46:55.123Z,0
2018-09-02T03:48:06.312Z,0
2018-09-02T03:49:16.481Z,0
2018-09-02T03:50:26.255Z,0
2018-09-02T03:51:36.424Z,0
2018-09-02T03:52:46.576Z,0
2018-09-02T03:53:56.869Z,0
2018-09-02T03:55:06.769Z,0
2018-09-02T03:56:16.602Z,0
2018-09-02T03:57:26.732Z,0
2018-09-02T03:58:37.044Z,0
2018-09-02T03:59:47.248Z,0
2018-09-02T04:00:57.368Z,0
2018-09-02T04:02:07.552Z,0
2018-09-02T04:03:17.739Z,0
2018-09-02T04:04:27.971Z,0
2018-09-02T04:05:38.150Z,0
2018-09-02T04:06:48.390Z,0
2018-09-02T04:07:58.526Z,0
2018-09-02T04:09:08.732Z,0
2018-09-02T04:10:18.625Z,0
2018-09-02T04:11:29.386Z,0
2018-09-02T04:12:39.862Z,0
2018-09-02T04:13:49.833Z,0
2018-09-02T04:14:59.997Z,0
2018-09-02T04:16:10.154Z,0
2018-09-02T04:17:20.386Z,0
2018-09-02T04:18:30.584Z,0
2018-09-02T04:19:40.738Z,0
2018-09-02T04:20:51.854Z,0
2018-09-02T04:22:02.009Z,0
2018-09-02T04:23:12.147Z,0
2018-09-02T04:24:22.261Z,0
2018-09-02T04:25:32.460Z,0
2018-09-02T04:26:42.592Z,0
2018-09-02T04:27:52.504Z,0
2018-09-02T04:29:02.650Z,0
2018-09-02T04:30:12.786Z,0
2018-09-02T04:31:22.950Z,0
2018-09-02T04:32:33.121Z,0
2018-09-02T04:33:43.818Z,5
2018-09-02T04:34:54.084Z,5
2018-09-02T04:36:04.313Z,5
2018-09-02T04:37:14.193Z,5
2018-09-02T04:38:24.557Z,5
2018-09-02T04:39:34.065Z,5
2018-09-02T04:40:44.364Z,5
2018-09-02T04:41:54.525Z,5
2018-09-02T04:43:04.750Z,10
2018-09-02T04:44:15.034Z,10
2018-09-02T04:45:25.576Z,10
2018-09-02T04:46:35.791Z,10
2018-09-02T04:47:45.707Z,10
2018-09-02T04:48:55.829Z,10
2018-09-02T04:50:06.103Z,15
2018-09-02T04:51:16.326Z,15
2018-09-02T04:52:26.514Z,15
2018-09-02T04:53:36.698Z,15
2018-09-02T04:54:47.050Z,15
2018-09-02T04:55:57.317Z,15
2018-09-02T04:57:07.492Z,20
2018-09-02T04:58:17.912Z,20
2018-09-02T04:59:28.058Z,20
2018-09-02T05:00:38.518Z,20
2018-09-02T05:01:48.772Z,20
2018-09-02T05:02:59.010Z,20
2018-09-02T05:04:09.345Z,20
2018-09-02T05:05:19.463Z,25
2018-09-02T05:06:29.760Z,25
2018-09-02T05:07:40.895Z,25
2018-09-02T05:08:51.042Z,25
2018-09-02T05:10:01.210Z,30
2018-09-02T05:11:11.364Z,30
2018-09-02T05:12:21.494Z,30
2018-09-02T05:13:31.639Z,35
2018-09-02T05:14:41.803Z,35
2018-09-02T05:15:52.003Z,35
2018-09-02T05:17:02.418Z,35
2018-09-02T05:18:12.337Z,35
2018-09-02T05:19:22.642Z,35
2018-09-02T05:20:32.788Z,35
2018-09-02T05:21:42.932Z,35
2018-09-02T05:22:54.233Z,40
2018-09-02T05:24:04.400Z,40
2018-09-02T05:25:14.619Z,40
2018-09-02T05:26:24.976Z,40
2018-09-02T05:27:35.225Z,40
2018-09-02T05:28:45.459Z,45
2018-09-02T05:29:55.700Z,45
2018-09-02T05:31:05.976Z,45
2018-09-02T05:32:16.155Z,45
2018-09-02T05:33:26.290Z,45
2018-09-02T05:34:36.535Z,45
2018-09-02T05:35:46.699Z,45
2018-09-02T05:36:57.013Z,50
2018-09-02T05:38:07.209Z,50
2018-09-02T05:39:17.529Z,55
2018-09-02T05:40:27.706Z,55
2018-09-02T05:41:37.913Z,55
2018-09-02T05:42:47.779Z,60
2018-09-02T05:43:57.918Z,60
2018-09-02T05:45:07.898Z,65
2018-09-02T05:46:18.043Z,65
2018-09-02T05:47:28.174Z,70
2018-09-02T05:48:38.320Z,70
2018-09-02T05:49:48.443Z,75
2018-09-02T05:50:58.633Z,75
2018-09-02T05:52:08.814Z,80
2018-09-02T05:53:19.093Z,85
2018-09-02T05:54:28.988Z,80
2018-09-02T05:55:38.892Z,80
2018-09-02T05:56:49.060Z,85
2018-09-02T05:57:59.208Z,85
2018-09-02T05:59:09.346Z,85
2018-09-02T06:00:19.234Z,90
2018-09-02T06:01:29.357Z,95
2018-09-02T06:02:39.035Z,90
2018-09-02T06:03:49.199Z,95
2018-09-02T06:04:59.391Z,95
2018-09-02T06:06:09.625Z,95
2018-09-02T06:07:19.917Z,100
2018-09-02T06:08:30.069Z,100
2018-09-02T06:09:40.254Z,105
2018-09-02T06:10:50.459Z,110
2018-09-02T06:12:00.628Z,110
2018-09-02T06:13:10.880Z,115
2018-09-02T06:14:21.046Z,115
2018-09-02T06:15:31.182Z,120
2018-09-02T06:16:41.354Z,120
2018-09-02T06:17:51.267Z,120
2018-09-02T06:19:01.453Z,130
2018-09-02T06:20:11.820Z,140
2018-09-02T06:21:21.637Z,145
2018-09-02T06:22:31.807Z,150
2018-09-02T06:23:41.686Z,155
2018-09-02T06:24:51.827Z,160
2018-09-02T06:26:01.762Z,165
2018-09-02T06:27:11.920Z,160
2018-09-02T06:28:21.911Z,160
2018-09-02T06:29:32.047Z,160
2018-09-02T06:30:42.278Z,165
2018-09-02T06:31:52.279Z,170
2018-09-02T06:33:02.455Z,175
2018-09-02T06:34:12.599Z,185
2018-09-02T06:35:22.516Z,190
2018-09-02T06:36:32.683Z,200
2018-09-02T06:37:42.817Z,210
2018-09-02T06:38:52.989Z,225
2018-09-02T06:40:02.870Z,240
2018-09-02T06:41:13.007Z,230
2018-09-02T06:42:23.194Z,235
2018-09-02T06:43:33.346Z,230
2018-09-02T06:44:43.520Z,220
2018-09-02T06:45:54.267Z,215
2018-09-02T06:47:04.478Z,215
2018-09-02T06:48:14.409Z,205
2018-09-02T06:49:24.609Z,195
2018-09-02T06:50:34.764Z,190
2018-09-02T06:51:44.924Z,180
2018-09-02T06:52:55.070Z,190
2018-09-02T06:54:05.213Z,190
2018-09-02T06:55:15.392Z,190
2018-09-02T06:56:25.569Z,175
2018-09-02T06:57:35.707Z,170
2018-09-02T06:58:46.449Z,170
2018-09-02T06:59:56.747Z,175
2018-09-02T07:01:06.902Z,180
2018-09-02T07:02:17.044Z,190
2018-09-02T07:03:27.196Z,195
2018-09-02T07:04:37.327Z,180
2018-09-02T07:05:47.474Z,165
2018-09-02T07:06:57.625Z,150
2018-09-02T07:08:07.898Z,150
2018-09-02T07:09:18.175Z,150
2018-09-02T07:10:28.386Z,155
2018-09-02T07:11:38.539Z,150
2018-09-02T07:12:48.826Z,170
2018-09-02T07:13:59.011Z,180
2018-09-02T07:15:09.325Z,165
2018-09-02T07:16:19.004Z,185
2018-09-02T07:17:29.210Z,160
2018-09-02T07:18:39.167Z,160
2018-09-02T07:19:49.523Z,180
2018-09-02T07:20:59.672Z,175
2018-09-02T07:22:09.822Z,185
2018-09-02T07:23:19.937Z,195
2018-09-02T07:24:30.138Z,215
2018-09-02T07:25:40.500Z,220
2018-09-02T07:26:50.633Z,230
2018-09-02T07:28:00.796Z,235
2018-09-02T07:29:11.006Z,235
2018-09-02T07:30:21.164Z,250
2018-09-02T07:31:31.769Z,265
2018-09-02T07:32:42.157Z,275
2018-09-02T07:33:52.247Z,275
2018-09-02T07:35:02.192Z,265
2018-09-02T07:36:12.563Z,260
2018-09-02T07:37:22.719Z,255
2018-09-02T07:38:32.878Z,255
2018-09-02T07:39:43.056Z,245
2018-09-02T07:40:52.873Z,235
2018-09-02T07:42:02.768Z,230
2018-09-02T07:43:12.976Z,230
2018-09-02T07:44:23.312Z,255
2018-09-02T07:45:33.583Z,275
2018-09-02T07:46:43.566Z,295
2018-09-02T07:47:53.742Z,300
2018-09-02T07:49:03.922Z,300
2018-09-02T07:50:14.144Z,285
2018-09-02T07:51:24.286Z,265
2018-09-02T07:52:34.179Z,260
2018-09-02T07:53:44.328Z,250
2018-09-02T07:54:54.502Z,255
2018-09-02T07:56:04.666Z,255
2018-09-02T07:57:14.836Z,265
2018-09-02T07:58:24.626Z,285
2018-09-02T07:59:34.849Z,325
2018-09-02T08:00:45.029Z,360
2018-09-02T08:01:55.169Z,375
2018-09-02T08:03:05.230Z,370
2018-09-02T08:04:15.396Z,370
2018-09-02T08:05:25.538Z,350
2018-09-02T08:06:35.536Z,340
2018-09-02T08:07:45.499Z,330
2018-09-02T08:08:55.749Z,320
2018-09-02T08:10:05.973Z,305
2018-09-02T08:11:16.119Z,275
2018-09-02T08:12:26.740Z,265
2018-09-02T08:13:37.243Z,275
2018-09-02T08:14:47.420Z,310
2018-09-02T08:15:57.604Z,350
2018-09-02T08:17:07.753Z,385
2018-09-02T08:18:17.281Z,405
2018-09-02T08:19:27.582Z,405
2018-09-02T08:20:37.823Z,385
2018-09-02T08:21:48.203Z,345
2018-09-02T08:22:58.364Z,315
2018-09-02T08:24:08.569Z,310
2018-09-02T08:25:18.741Z,320
2018-09-02T08:26:29.302Z,315
2018-09-02T08:27:39.275Z,310
2018-09-02T08:28:49.516Z,305
2018-09-02T08:29:59.538Z,295
2018-09-02T08:31:09.419Z,290
2018-09-02T08:32:19.647Z,300
2018-09-02T08:33:29.867Z,315
2018-09-02T08:34:40.065Z,320
2018-09-02T08:35:50.288Z,305
2018-09-02T08:37:00.500Z,305
2018-09-02T08:38:10.714Z,295
2018-09-02T08:39:21.701Z,285
2018-09-02T08:40:31.849Z,300
2018-09-02T08:41:41.754Z,325
2018-09-02T08:42:51.928Z,430
2018-09-02T08:44:02.107Z,380
2018-09-02T08:45:12.520Z,390
2018-09-02T08:46:22.749Z,390
2018-09-02T08:47:32.974Z,410
2018-09-02T08:48:43.202Z,440
2018-09-02T08:49:53.372Z,490
2018-09-02T08:51:03.737Z,560
2018-09-02T08:52:13.971Z,510
2018-09-02T08:53:24.120Z,490
2018-09-02T08:54:34.267Z,460
2018-09-02T08:55:44.446Z,410
2018-09-02T08:56:54.893Z,370
2018-09-02T08:58:05.050Z,300
2018-09-02T08:59:15.226Z,300
2018-09-02T09:00:25.367Z,265
2018-09-02T09:01:35.753Z,250
2018-09-02T09:02:46.034Z,250
2018-09-02T09:03:55.963Z,255
2018-09-02T09:05:06.160Z,265
2018-09-02T09:06:16.074Z,285
2018-09-02T09:07:26.594Z,320
2018-09-02T09:08:38.696Z,350
2018-09-02T09:09:49.234Z,340
2018-09-02T09:10:59.126Z,335
2018-09-02T09:12:09.342Z,325
2018-09-02T09:13:19.542Z,315
2018-09-02T09:14:29.722Z,300
2018-09-02T09:15:40.113Z,280
2018-09-02T09:16:51.060Z,260
2018-09-02T09:18:02.410Z,270
2018-09-02T09:19:12.614Z,290
2018-09-02T09:20:22.775Z,280
2018-09-02T09:21:33.419Z,295
2018-09-02T09:22:44.120Z,295
2018-09-02T09:23:54.392Z,305
2018-09-02T09:25:04.593Z,300
2018-09-02T09:26:14.858Z,290
2018-09-02T09:27:25.073Z,275
2018-09-02T09:28:35.270Z,265
2018-09-02T09:29:45.283Z,260
2018-09-02T09:30:55.521Z,260
2018-09-02T09:32:05.967Z,265
2018-09-02T09:33:16.178Z,270
2018-09-02T09:34:26.348Z,270
2018-09-02T09:35:36.731Z,265
2018-09-02T09:36:46.938Z,260
2018-09-02T09:37:57.083Z,255
2018-09-02T09:39:06.978Z,225
2018-09-02T09:40:17.158Z,245
2018-09-02T09:41:27.062Z,260
2018-09-02T09:42:37.246Z,265
2018-09-02T09:43:47.489Z,300
2018-09-02T09:44:57.639Z,300
2018-09-02T09:46:07.960Z,260
2018-09-02T09:47:18.154Z,260
2018-09-02T09:48:28.503Z,265
2018-09-02T09:49:38.663Z,270
2018-09-02T09:50:48.857Z,265
2018-09-02T09:51:59.748Z,240
2018-09-02T09:53:09.966Z,220
2018-09-02T09:54:19.947Z,205
2018-09-02T09:55:30.464Z,205
2018-09-02T09:56:40.710Z,200
2018-09-02T09:57:51.170Z,195
2018-09-02T09:59:01.379Z,185
2018-09-02T10:00:11.671Z,180
2018-09-02T10:01:21.854Z,180
2018-09-02T10:02:32.000Z,190
2018-09-02T10:03:42.409Z,210
2018-09-02T10:04:52.609Z,210
2018-09-02T10:06:02.532Z,210
2018-09-02T10:07:12.722Z,215
2018-09-02T10:08:23.106Z,205
2018-09-02T10:09:33.370Z,195
2018-09-02T10:10:43.806Z,180
2018-09-02T10:11:54.598Z,170
2018-09-02T10:13:04.778Z,160
2018-09-02T10:14:14.983Z,145
2018-09-02T10:15:25.139Z,135
2018-09-02T10:16:35.334Z,125
2018-09-02T10:17:45.524Z,115
2018-09-02T10:18:55.695Z,110
2018-09-02T10:20:05.869Z,105
2018-09-02T10:21:16.122Z,105
2018-09-02T10:22:26.397Z,105
2018-09-02T10:23:36.503Z,100
2018-09-02T10:24:46.892Z,100
2018-09-02T10:25:56.881Z,100
2018-09-02T10:27:06.818Z,105
2018-09-02T10:28:16.980Z,120
2018-09-02T10:29:27.197Z,130
2018-09-02T10:30:37.120Z,135
2018-09-02T10:31:47.141Z,140
2018-09-02T10:32:57.333Z,135
2018-09-02T10:34:07.629Z,135
2018-09-02T10:35:17.815Z,135
2018-09-02T10:36:28.076Z,140
2018-09-02T10:37:38.338Z,155
2018-09-02T10:38:48.578Z,165
2018-09-02T10:39:58.765Z,165
2018-09-02T10:41:09.772Z,150
2018-09-02T10:42:20.206Z,140
2018-09-02T10:43:31.385Z,140
2018-09-02T10:44:41.588Z,140
2018-09-02T10:45:51.805Z,130
2018-09-02T10:47:02.014Z,120
2018-09-02T10:48:12.303Z,110
2018-09-02T10:49:22.460Z,100
2018-09-02T10:50:32.667Z,95
2018-09-02T10:51:42.856Z,100
2018-09-02T10:52:53.141Z,95
2018-09-02T10:54:03.373Z,95
2018-09-02T10:55:13.530Z,95
2018-09-02T10:56:23.694Z,95
2018-09-02T10:57:33.944Z,100
2018-09-02T10:58:44.176Z,100
2018-09-02T10:59:54.703Z,105
2018-09-02T11:01:04.882Z,100
2018-09-02T11:02:16.052Z,100
2018-09-02T11:03:26.074Z,95
2018-09-02T11:04:36.331Z,100
2018-09-02T11:05:46.562Z,105
2018-09-02T11:06:56.767Z,115
2018-09-02T11:08:07.020Z,120
2018-09-02T11:09:17.168Z,130
2018-09-02T11:10:27.022Z,135
2018-09-02T11:11:37.272Z,140
2018-09-02T11:12:47.502Z,140
2018-09-02T11:13:59.069Z,135
2018-09-02T11:15:09.639Z,130
2018-09-02T11:16:19.881Z,130
2018-09-02T11:17:30.070Z,125
2018-09-02T11:18:40.272Z,130
2018-09-02T11:19:50.462Z,130
2018-09-02T11:21:00.668Z,130
2018-09-02T11:22:10.919Z,125
2018-09-02T11:23:21.213Z,120
2018-09-02T11:24:32.122Z,110
2018-09-02T11:25:42.329Z,100
2018-09-02T11:26:52.512Z,90
2018-09-02T11:28:02.419Z,85
2018-09-02T11:29:12.575Z,85
2018-09-02T11:30:22.325Z,85
2018-09-02T11:31:33.952Z,80
2018-09-02T11:32:44.136Z,70
2018-09-02T11:33:54.612Z,65
2018-09-02T11:35:05.096Z,70
2018-09-02T11:36:15.278Z,70
2018-09-02T11:37:25.520Z,60
2018-09-02T11:38:35.691Z,60
2018-09-02T11:39:45.903Z,60
2018-09-02T11:40:56.155Z,60
2018-09-02T11:42:06.328Z,55
2018-09-02T11:43:16.648Z,55
2018-09-02T11:44:26.834Z,55
2018-09-02T11:45:37.025Z,55
2018-09-02T11:46:47.748Z,50
2018-09-02T11:47:57.952Z,50
2018-09-02T11:49:08.510Z,55
2018-09-02T11:50:19.059Z,60
2018-09-02T11:51:29.245Z,60
2018-09-02T11:52:39.495Z,60
2018-09-02T11:53:49.713Z,60
2018-09-02T11:54:59.906Z,65
2018-09-02T11:56:10.063Z,65
2018-09-02T11:57:20.528Z,65
2018-09-02T11:58:30.758Z,70
2018-09-02T11:59:41.113Z,75
2018-09-02T12:00:51.375Z,75
2018-09-02T12:02:01.594Z,70
2018-09-02T12:03:11.815Z,70
2018-09-02T12:04:22.040Z,70
2018-09-02T12:05:31.984Z,70
2018-09-02T12:06:42.221Z,70
2018-09-02T12:07:52.447Z,70
2018-09-02T12:09:02.007Z,75
2018-09-02T12:10:12.177Z,85
2018-09-02T12:11:22.411Z,100
2018-09-02T12:12:32.691Z,110
2018-09-02T12:13:42.651Z,125
2018-09-02T12:14:52.837Z,135
2018-09-02T12:16:03.223Z,145
2018-09-02T12:17:13.423Z,155
2018-09-02T12:18:23.731Z,160
2018-09-02T12:19:33.965Z,160
2018-09-02T12:20:43.782Z,155
2018-09-02T12:21:53.949Z,150
2018-09-02T12:23:04.154Z,150
2018-09-02T12:24:14.105Z,160
2018-09-02T12:25:24.337Z,175
2018-09-02T12:26:34.531Z,185
2018-09-02T12:27:44.800Z,165
2018-09-02T12:28:55.250Z,155
2018-09-02T12:30:06.432Z,155
2018-09-02T12:31:16.650Z,155
2018-09-02T12:32:26.972Z,160
2018-09-02T12:33:37.371Z,160
2018-09-02T12:34:47.566Z,155
2018-09-02T12:35:57.873Z,155
2018-09-02T12:37:08.131Z,155
2018-09-02T12:38:18.354Z,150
2018-09-02T12:39:28.553Z,155
2018-09-02T12:40:38.973Z,155
2018-09-02T12:41:49.158Z,150
2018-09-02T12:42:59.335Z,140
2018-09-02T12:44:09.558Z,140
2018-09-02T12:45:19.737Z,140
2018-09-02T12:46:29.919Z,140
2018-09-02T12:47:40.464Z,150
2018-09-02T12:48:50.748Z,170
2018-09-02T12:50:00.926Z,185
2018-09-02T12:51:10.613Z,205
2018-09-02T12:52:20.863Z,210
2018-09-02T12:53:32.053Z,185
2018-09-02T12:54:42.293Z,175
2018-09-02T12:55:52.973Z,180
2018-09-02T12:57:03.212Z,185
2018-09-02T12:58:13.382Z,180
2018-09-02T12:59:23.648Z,185
2018-09-02T13:00:34.007Z,195
2018-09-02T13:01:43.975Z,190
2018-09-02T13:02:54.257Z,180
2018-09-02T13:04:04.484Z,175
2018-09-02T13:05:15.102Z,170
2018-09-02T13:06:25.094Z,170
2018-09-02T13:07:35.546Z,175
2018-09-02T13:08:45.668Z,180
2018-09-02T13:09:55.936Z,190
2018-09-02T13:11:06.185Z,180
2018-09-02T13:12:16.403Z,165
2018-09-02T13:13:26.704Z,160
2018-09-02T13:14:36.894Z,145
2018-09-02T13:15:47.147Z,135
2018-09-02T13:16:57.719Z,140
2018-09-02T13:18:07.985Z,140
2018-09-02T13:19:18.050Z,130
2018-09-02T13:20:28.559Z,120
2018-09-02T13:21:38.810Z,110
2018-09-02T13:22:49.098Z,95
2018-09-02T13:23:59.918Z,95
2018-09-02T13:25:10.212Z,90
2018-09-02T13:26:20.703Z,80
2018-09-02T13:27:30.897Z,75
2018-09-02T13:28:41.108Z,80
2018-09-02T13:29:51.294Z,90
2018-09-02T13:31:01.462Z,95
2018-09-02T13:32:11.699Z,75
2018-09-02T13:33:21.959Z,55
2018-09-02T13:34:32.134Z,50
2018-09-02T13:35:42.374Z,55
2018-09-02T13:36:52.528Z,50
2018-09-02T13:38:02.826Z,50
2018-09-02T13:39:12.885Z,60
2018-09-02T13:40:23.269Z,75
2018-09-02T13:41:33.714Z,90
2018-09-02T13:42:43.550Z,90
2018-09-02T13:43:53.806Z,80
2018-09-02T13:45:04.151Z,80
2018-09-02T13:46:14.429Z,75
2018-09-02T13:47:24.622Z,65
2018-09-02T13:48:35.110Z,65
2018-09-02T13:49:45.368Z,60
2018-09-02T13:50:55.809Z,55
2018-09-02T13:52:06.063Z,55
2018-09-02T13:53:16.095Z,55
2018-09-02T13:54:26.986Z,50
2018-09-02T13:55:37.193Z,50
2018-09-02T13:56:47.434Z,50
2018-09-02T13:57:57.871Z,45
2018-09-02T13:59:07.838Z,45
2018-09-02T14:00:18.018Z,40
2018-09-02T14:01:28.129Z,45
2018-09-02T14:02:38.048Z,50
2018-09-02T14:03:48.293Z,55
2018-09-02T14:04:58.459Z,65
2018-09-02T14:06:08.694Z,75
2018-09-02T14:07:18.924Z,80
2018-09-02T14:08:29.335Z,90
2018-09-02T14:09:39.048Z,105
2018-09-02T14:10:49.510Z,105
2018-09-02T14:11:59.159Z,100
2018-09-02T14:13:09.080Z,95
2018-09-02T14:14:19.354Z,90
2018-09-02T14:15:29.382Z,85
2018-09-02T14:16:39.596Z,80
2018-09-02T14:17:49.851Z,80
2018-09-02T14:19:00.401Z,75
2018-09-02T14:20:10.681Z,65
2018-09-02T14:21:21.507Z,55
2018-09-02T14:22:31.707Z,50
2018-09-02T14:23:42.117Z,50
2018-09-02T14:24:52.550Z,50
2018-09-02T14:26:02.733Z,50
2018-09-02T14:27:12.936Z,50
2018-09-02T14:28:23.463Z,50
2018-09-02T14:29:33.452Z,60
2018-09-02T14:30:43.725Z,65
2018-09-02T14:31:53.956Z,70
2018-09-02T14:33:03.888Z,75
2018-09-02T14:34:14.098Z,75
2018-09-02T14:35:24.304Z,85
2018-09-02T14:36:34.716Z,90
2018-09-02T14:37:44.995Z,90
2018-09-02T14:38:55.222Z,95
2018-09-02T14:40:05.435Z,85
2018-09-02T14:41:15.373Z,80
2018-09-02T14:42:25.632Z,70
2018-09-02T14:43:35.781Z,65
2018-09-02T14:44:45.936Z,60
2018-09-02T14:45:56.147Z,65
2018-09-02T14:47:07.332Z,70
2018-09-02T14:48:17.596Z,70
2018-09-02T14:49:27.859Z,65
2018-09-02T14:50:38.138Z,60
2018-09-02T14:51:48.528Z,55
2018-09-02T14:52:58.770Z,50
2018-09-02T14:54:09.061Z,50
2018-09-02T14:55:19.257Z,50
2018-09-02T14:56:29.536Z,50
2018-09-02T14:57:39.765Z,50
2018-09-02T14:58:49.999Z,50
2018-09-02T15:00:00.321Z,50
2018-09-02T15:01:11.262Z,45
2018-09-02T15:02:22.385Z,40
2018-09-02T15:03:33.014Z,40
2018-09-02T15:04:43.721Z,40
2018-09-02T15:05:54.415Z,45
2018-09-02T15:07:04.583Z,45
2018-09-02T15:08:14.797Z,45
2018-09-02T15:09:25.047Z,45
2018-09-02T15:10:35.400Z,50
2018-09-02T15:11:45.671Z,50
2018-09-02T15:12:56.051Z,60
2018-09-02T15:14:06.288Z,60
2018-09-02T15:15:16.531Z,65
2018-09-02T15:16:26.764Z,65
2018-09-02T15:17:37.074Z,65
2018-09-02T15:18:47.223Z,60
2018-09-02T15:19:57.474Z,60
2018-09-02T15:21:07.989Z,55
2018-09-02T15:22:18.313Z,50
2018-09-02T15:23:28.558Z,50
2018-09-02T15:24:39.298Z,45
2018-09-02T15:25:49.573Z,45
2018-09-02T15:26:59.829Z,40
2018-09-02T15:28:10.091Z,35
2018-09-02T15:29:20.310Z,35
2018-09-02T15:30:30.272Z,30
2018-09-02T15:31:40.562Z,30
2018-09-02T15:32:50.871Z,30
2018-09-02T15:34:01.152Z,30
2018-09-02T15:35:11.399Z,30
2018-09-02T15:36:21.577Z,35
2018-09-02T15:37:31.794Z,35
2018-09-02T15:38:41.985Z,35
2018-09-02T15:39:52.182Z,35
2018-09-02T15:41:02.342Z,40
2018-09-02T15:42:12.616Z,45
2018-09-02T15:43:22.861Z,45
2018-09-02T15:44:33.062Z,55
2018-09-02T15:45:43.684Z,60
2018-09-02T15:46:54.088Z,60
2018-09-02T15:48:04.339Z,55
2018-09-02T15:49:14.545Z,50
2018-09-02T15:50:24.784Z,45
2018-09-02T15:51:35.006Z,45
2018-09-02T15:52:45.269Z,40
2018-09-02T15:53:55.221Z,40
2018-09-02T15:55:05.432Z,40
2018-09-02T15:56:15.754Z,40
2018-09-02T15:57:25.948Z,40
2018-09-02T15:58:35.982Z,35
2018-09-02T15:59:45.941Z,35
2018-09-02T16:00:56.377Z,35
2018-09-02T16:02:06.661Z,30
2018-09-02T16:03:16.597Z,25
2018-09-02T16:04:26.901Z,25
2018-09-02T16:05:37.152Z,30
2018-09-02T16:06:47.418Z,30
2018-09-02T16:07:57.693Z,30
2018-09-02T16:09:07.941Z,25
2018-09-02T16:10:18.112Z,30
2018-09-02T16:11:28.342Z,35
2018-09-02T16:12:38.727Z,35
2018-09-02T16:13:49.193Z,35
2018-09-02T16:14:59.438Z,35
2018-09-02T16:16:09.706Z,35
2018-09-02T16:17:19.991Z,35
2018-09-02T16:18:30.423Z,30
2018-09-02T16:19:40.765Z,30
2018-09-02T16:20:51.177Z,30
2018-09-02T16:22:01.387Z,30
2018-09-02T16:23:11.800Z,25
2018-09-02T16:24:22.098Z,25
2018-09-02T16:25:32.463Z,25
2018-09-02T16:26:42.649Z,25
2018-09-02T16:27:52.877Z,25
2018-09-02T16:29:03.186Z,20
2018-09-02T16:30:13.433Z,20
2018-09-02T16:31:23.654Z,20
2018-09-02T16:32:33.937Z,20
2018-09-02T16:33:44.593Z,20
2018-09-02T16:34:54.900Z,20
2018-09-02T16:36:05.842Z,20
2018-09-02T16:37:16.228Z,20